Time;durP1;ratioP1;P1;durP2;ratioP2;P2;SDS_P1;SDS_P2;PMS_P1;PMS_P2;Temp;Humidity;BMP_temperature;BMP_pressure;BME280_temperature;BME280_humidity;BME280_pressure;Samples;Min_cycle;Max_cycle;Signal;HPM_P1;HPM_P2
2023/06/07 00:02:02;;;;;;;5.57;2.60;;;19.40;59.70;;;;;;5097832;28;20054;-76
2023/06/07 00:04:30;;;;;;;6.03;2.53;;;19.30;59.70;;;;;;5097933;28;20518;-77
2023/06/07 00:07:01;;;;;;;5.13;2.83;;;19.30;59.80;;;;;;5080582;28;20043;-77
2023/06/07 00:09:30;;;;;;;4.68;2.35;;;19.30;59.90;;;;;;5097664;27;20126;-77
2023/06/07 00:11:56;;;;;;;5.28;2.60;;;19.30;59.80;;;;;;5097040;28;20039;-77
2023/06/07 00:14:23;;;;;;;4.80;2.78;;;19.30;60.00;;;;;;5097665;28;20126;-78
2023/06/07 00:16:50;;;;;;;3.92;2.30;;;19.30;59.90;;;;;;5096571;28;20471;-77
2023/06/07 00:19:21;;;;;;;4.95;2.35;;;19.20;59.90;;;;;;5098177;28;20059;-78
2023/06/07 00:21:51;;;;;;;4.72;2.42;;;19.20;59.90;;;;;;5096046;28;20399;-78
2023/06/07 00:24:18;;;;;;;3.53;2.30;;;19.20;59.90;;;;;;5098537;28;20063;-77
2023/06/07 00:26:44;;;;;;;3.58;2.13;;;19.20;59.90;;;;;;5097487;28;20595;-77
2023/06/07 00:29:10;;;;;;;6.20;2.70;;;19.20;59.90;;;;;;5097133;28;20032;-77
2023/06/07 00:31:37;;;;;;;5.82;2.20;;;19.20;59.80;;;;;;5097256;28;20036;-77
2023/06/07 00:34:04;;;;;;;3.83;2.65;;;19.20;59.80;;;;;;5096797;28;20054;-77
2023/06/07 00:36:30;;;;;;;6.63;2.70;;;19.20;59.90;;;;;;5096741;28;20077;-79
2023/06/07 00:38:56;;;;;;;3.90;2.58;;;19.20;60.00;;;;;;5095969;28;20068;-77
2023/06/07 00:41:22;;;;;;;5.15;2.67;;;19.10;59.90;;;;;;5096974;28;20126;-77
2023/06/07 00:43:48;;;;;;;3.55;2.42;;;19.10;59.90;;;;;;5098495;28;20039;-77
2023/06/07 00:46:19;;;;;;;3.97;2.35;;;19.10;59.80;;;;;;5096846;28;20036;-78
2023/06/07 00:48:45;;;;;;;6.10;2.42;;;19.10;59.80;;;;;;5096649;28;20058;-78
2023/06/07 00:51:12;;;;;;;5.28;2.60;;;19.10;59.80;;;;;;5096115;28;20115;-78
2023/06/07 00:53:38;;;;;;;10.00;3.08;;;19.00;60.00;;;;;;5095854;28;20035;-78
2023/06/07 00:56:07;;;;;;;4.32;2.25;;;19.00;60.20;;;;;;5098101;28;20062;-77
2023/06/07 00:58:35;;;;;;;3.70;2.25;;;19.00;60.30;;;;;;5097874;28;20040;-79
2023/06/07 01:01:01;;;;;;;5.90;2.40;;;19.00;60.60;;;;;;5077915;28;20033;-78
2023/06/07 01:03:29;;;;;;;3.70;2.17;;;19.00;60.80;;;;;;5094871;28;20027;-80
2023/06/07 01:05:55;;;;;;;2.47;1.90;;;18.90;60.90;;;;;;5097154;28;20028;-79
2023/06/07 01:08:21;;;;;;;4.28;2.60;;;19.00;60.90;;;;;;5095954;28;20085;-80
2023/06/07 01:10:49;;;;;;;4.40;2.28;;;18.90;60.80;;;;;;5095172;28;20073;-78
2023/06/07 01:13:16;;;;;;;3.08;2.33;;;18.90;61.00;;;;;;5095579;28;20039;-77
2023/06/07 01:15:44;;;;;;;5.38;2.58;;;18.90;60.80;;;;;;5095209;28;20104;-77
2023/06/07 01:18:10;;;;;;;3.42;2.35;;;18.90;60.70;;;;;;5094239;28;20422;-77
2023/06/07 01:20:43;;;;;;;6.15;2.58;;;18.90;60.50;;;;;;5096350;28;20032;-77
2023/06/07 01:23:12;;;;;;;3.88;1.98;;;18.90;60.30;;;;;;5096538;28;20024;-77
2023/06/07 01:25:38;;;;;;;5.13;2.35;;;18.90;60.20;;;;;;5096079;28;20043;-77
2023/06/07 01:28:05;;;;;;;5.03;2.40;;;18.90;60.30;;;;;;5095240;28;20080;-77
2023/06/07 01:30:33;;;;;;;5.57;2.05;;;18.90;60.50;;;;;;5095150;28;20028;-77
2023/06/07 01:33:02;;;;;;;3.72;2.03;;;18.90;60.60;;;;;;5094131;28;20040;-77
2023/06/07 01:35:29;;;;;;;3.28;2.28;;;19.00;60.60;;;;;;5093746;28;20035;-75
2023/06/07 01:37:57;;;;;;;4.25;2.78;;;19.00;60.80;;;;;;5097378;28;20024;-76
2023/06/07 01:40:23;;;;;;;8.00;2.65;;;19.00;60.50;;;;;;5094875;28;20032;-76
2023/06/07 01:42:51;;;;;;;4.35;2.20;;;19.00;60.40;;;;;;5094865;28;20692;-76
2023/06/07 01:45:18;;;;;;;2.90;2.17;;;19.00;60.30;;;;;;5095970;28;20036;-76
2023/06/07 01:47:44;;;;;;;3.10;2.60;;;19.00;60.20;;;;;;5094092;28;20038;-76
2023/06/07 01:50:10;;;;;;;4.28;2.70;;;19.00;60.20;;;;;;5096102;28;20122;-77
2023/06/07 01:52:37;;;;;;;3.28;2.28;;;19.00;60.50;;;;;;5095503;28;20063;-76
2023/06/07 01:55:05;;;;;;;3.08;2.38;;;19.00;60.20;;;;;;5094718;28;20461;-76
2023/06/07 01:57:57;;;;;;;3.95;2.35;;;19.00;60.50;;;;;;5095366;28;20063;-78
2023/06/07 02:00:35;;;;;;;4.75;2.35;;;19.00;60.30;;;;;;5081449;28;20042;-77
2023/06/07 02:03:16;;;;;;;2.83;2.28;;;19.00;60.30;;;;;;5112061;28;20079;-77
2023/06/07 02:05:50;;;;;;;4.63;2.45;;;19.00;60.30;;;;;;5079329;28;20415;-78
2023/06/07 02:08:18;;;;;;;8.90;2.83;;;18.90;60.30;;;;;;5082183;28;20253;-79
2023/06/07 02:10:46;;;;;;;3.45;2.67;;;18.90;60.30;;;;;;5095382;28;20055;-76
2023/06/07 02:13:15;;;;;;;3.28;2.50;;;18.90;60.30;;;;;;5095419;28;20032;-77
2023/06/07 02:15:45;;;;;;;4.85;2.60;;;19.00;60.40;;;;;;5082384;28;20039;-77
2023/06/07 02:18:12;;;;;;;4.80;2.25;;;19.00;60.70;;;;;;5092720;28;20051;-77
2023/06/07 02:20:38;;;;;;;5.65;2.50;;;19.00;60.50;;;;;;5097110;28;20040;-78
2023/06/07 02:23:04;;;;;;;4.88;2.45;;;19.10;60.40;;;;;;5097002;28;20093;-77
2023/06/07 02:25:30;;;;;;;5.85;2.70;;;19.20;60.50;;;;;;5095080;28;21031;-78
2023/06/07 02:27:58;;;;;;;4.78;2.60;;;19.20;60.40;;;;;;5094327;28;20130;-78
2023/06/07 02:30:26;;;;;;;5.03;2.70;;;19.30;60.40;;;;;;5095994;28;20028;-78
2023/06/07 02:32:53;;;;;;;4.30;2.45;;;19.40;60.50;;;;;;5095105;28;20577;-78
2023/06/07 02:35:20;;;;;;;3.85;2.80;;;19.50;60.50;;;;;;5082439;28;20482;-79
2023/06/07 02:37:47;;;;;;;2.90;2.55;;;19.60;60.10;;;;;;5095825;28;20127;-79
2023/06/07 02:40:13;;;;;;;4.95;2.72;;;19.60;60.10;;;;;;5094786;28;20045;-78
2023/06/07 02:42:48;;;;;;;4.35;2.55;;;19.70;60.10;;;;;;5096140;28;20032;-78
2023/06/07 02:45:15;;;;;;;3.50;2.33;;;19.80;60.00;;;;;;5095831;28;20031;-78
2023/06/07 02:47:43;;;;;;;4.20;2.58;;;19.90;60.30;;;;;;5093777;28;20063;-78
2023/06/07 02:50:09;;;;;;;3.88;2.47;;;20.00;60.20;;;;;;5094815;28;20031;-78
2023/06/07 02:52:37;;;;;;;3.10;2.00;;;20.10;60.20;;;;;;5081139;28;20040;-78
2023/06/07 02:55:04;;;;;;;4.55;2.60;;;20.10;60.20;;;;;;5093765;28;20039;-78
2023/06/07 02:57:30;;;;;;;5.03;2.65;;;20.20;60.30;;;;;;5094307;28;20094;-78
2023/06/07 02:59:56;;;;;;;5.32;2.30;;;20.30;60.20;;;;;;5093234;28;20122;-79
2023/06/07 03:02:31;;;;;;;4.82;2.40;;;20.30;60.10;;;;;;5093697;28;20077;-79
2023/06/07 03:04:58;;;;;;;4.32;2.63;;;20.50;59.30;;;;;;5095210;28;20394;-79
2023/06/07 03:07:27;;;;;;;7.95;2.72;;;20.50;58.60;;;;;;5082137;28;20032;-79
2023/06/07 03:09:53;;;;;;;5.90;2.75;;;20.50;58.10;;;;;;5091991;28;20081;-79
2023/06/07 03:12:21;;;;;;;7.38;2.72;;;20.60;58.40;;;;;;5078491;28;20061;-79
2023/06/07 03:14:53;;;;;;;5.88;2.90;;;20.60;59.10;;;;;;5094346;28;20044;-79
2023/06/07 03:17:19;;;;;;;7.50;3.47;;;20.60;59.20;;;;;;5093694;28;20032;-78
2023/06/07 03:19:50;;;;;;;5.70;3.08;;;20.60;58.90;;;;;;5094047;28;20082;-78
2023/06/07 03:22:17;;;;;;;4.90;2.90;;;20.60;58.50;;;;;;5083130;28;20042;-78
2023/06/07 03:24:44;;;;;;;4.55;2.55;;;20.60;58.70;;;;;;5095449;28;20392;-79
2023/06/07 03:27:12;;;;;;;5.05;2.38;;;20.80;59.00;;;;;;5097674;28;20042;-78
2023/06/07 03:29:40;;;;;;;4.38;2.38;;;20.80;59.00;;;;;;5098095;28;20038;-79
2023/06/07 03:32:07;;;;;;;3.25;2.30;;;20.90;59.00;;;;;;5098125;28;20070;-79
2023/06/07 03:34:36;;;;;;;3.67;2.55;;;21.00;59.00;;;;;;5097194;28;20024;-78
2023/06/07 03:37:04;;;;;;;3.72;2.58;;;21.10;58.90;;;;;;5096414;28;20064;-80
2023/06/07 03:39:32;;;;;;;4.32;2.70;;;21.20;58.70;;;;;;5095764;28;20040;-80
2023/06/07 03:41:59;;;;;;;3.92;2.30;;;21.30;58.60;;;;;;5085829;28;20483;-80
2023/06/07 03:44:26;;;;;;;4.90;2.65;;;21.40;58.40;;;;;;5080189;28;20039;-80
2023/06/07 03:46:52;;;;;;;4.35;2.80;;;21.50;58.40;;;;;;5098149;28;20491;-79
2023/06/07 03:49:20;;;;;;;3.83;2.30;;;21.60;58.20;;;;;;5081288;28;20036;-80
2023/06/07 03:51:46;;;;;;;3.70;2.67;;;21.70;58.20;;;;;;5098360;28;20126;-80
2023/06/07 03:54:15;;;;;;;4.95;3.00;;;21.80;58.10;;;;;;5098594;28;20031;-80
2023/06/07 03:56:42;;;;;;;4.20;2.55;;;21.90;58.00;;;;;;5096503;28;20360;-80
2023/06/07 03:59:12;;;;;;;5.20;3.00;;;22.00;57.90;;;;;;5096953;28;20393;-80
2023/06/07 04:01:40;;;;;;;6.05;2.67;;;22.10;57.90;;;;;;5082249;28;20035;-76
2023/06/07 04:04:07;;;;;;;5.00;2.70;;;22.20;57.70;;;;;;5078065;28;20043;-77
2023/06/07 04:06:34;;;;;;;3.88;2.55;;;22.30;57.60;;;;;;5095314;28;20671;-77
2023/06/07 04:09:02;;;;;;;3.20;2.35;;;22.40;57.60;;;;;;5097669;28;20036;-77
2023/06/07 04:11:29;;;;;;;4.88;2.60;;;22.50;57.70;;;;;;5079095;28;20047;-77
2023/06/07 04:13:55;;;;;;;2.72;2.05;;;22.60;57.50;;;;;;5096942;28;20040;-76
2023/06/07 04:16:25;;;;;;;5.00;2.83;;;22.70;57.60;;;;;;5098257;28;20042;-77
2023/06/07 04:18:51;;;;;;;2.75;2.38;;;22.80;57.50;;;;;;5091143;28;20557;-77
2023/06/07 04:21:17;;;;;;;4.97;2.45;;;22.90;57.50;;;;;;5095802;28;20035;-77
2023/06/07 04:23:45;;;;;;;2.63;2.30;;;23.00;57.70;;;;;;5096072;28;20036;-77
2023/06/07 04:26:18;;;;;;;3.00;2.50;;;23.10;57.70;;;;;;5096028;28;20038;-77
2023/06/07 04:28:45;;;;;;;3.63;2.03;;;23.20;57.70;;;;;;5079271;28;20068;-77
2023/06/07 04:31:13;;;;;;;3.55;2.50;;;23.30;57.60;;;;;;5094097;28;20631;-76
2023/06/07 04:33:40;;;;;;;4.35;2.70;;;23.30;57.80;;;;;;5084200;28;20032;-76
2023/06/07 04:36:10;;;;;;;4.00;2.30;;;23.40;57.60;;;;;;5094668;28;20678;-75
2023/06/07 04:38:41;;;;;;;4.38;2.53;;;23.50;57.60;;;;;;5070132;28;20057;-76
2023/06/07 04:41:13;;;;;;;4.53;2.60;;;23.60;57.50;;;;;;5095621;28;20031;-77
2023/06/07 04:43:49;;;;;;;5.57;2.13;;;23.70;57.60;;;;;;5088750;28;20048;-77
2023/06/07 04:46:20;;;;;;;3.42;2.30;;;23.80;57.30;;;;;;5078122;28;20123;-76
2023/06/07 04:48:46;;;;;;;3.08;2.33;;;23.90;57.40;;;;;;5076940;28;20059;-78
2023/06/07 04:51:13;;;;;;;3.67;2.38;;;24.00;58.00;;;;;;5061374;28;20063;-78
2023/06/07 04:53:43;;;;;;;3.70;2.20;;;24.10;57.40;;;;;;5097752;28;20034;-78
2023/06/07 04:56:12;;;;;;;3.83;2.42;;;24.20;57.20;;;;;;5095883;28;20032;-78
2023/06/07 04:58:40;;;;;;;4.18;2.28;;;24.30;57.10;;;;;;5083683;28;20081;-78
2023/06/07 05:01:11;;;;;;;3.15;1.92;;;24.40;57.20;;;;;;5094936;28;20531;-78
2023/06/07 05:03:40;;;;;;;2.22;2.03;;;24.60;57.30;;;;;;5098936;28;20115;-78
2023/06/07 05:06:06;;;;;;;3.35;1.95;;;24.60;57.20;;;;;;5096112;28;20506;-78
2023/06/07 05:08:32;;;;;;;2.22;1.67;;;24.70;57.20;;;;;;5093704;28;20468;-77
2023/06/07 05:11:00;;;;;;;3.42;1.88;;;24.80;57.10;;;;;;5082009;28;20434;-78
2023/06/07 05:13:26;;;;;;;3.03;2.00;;;24.90;57.10;;;;;;5095166;28;20045;-77
2023/06/07 05:15:54;;;;;;;3.08;2.10;;;25.00;57.10;;;;;;5095151;28;20084;-78
2023/06/07 05:18:21;;;;;;;3.95;1.70;;;25.20;57.10;;;;;;5083236;28;20039;-78
2023/06/07 05:20:50;;;;;;;3.78;1.92;;;25.20;56.90;;;;;;5078479;28;20418;-78
2023/06/07 05:23:17;;;;;;;4.75;2.10;;;25.40;56.90;;;;;;5093763;28;20068;-77
2023/06/07 05:25:46;;;;;;;3.65;2.15;;;25.50;56.80;;;;;;5078357;28;20043;-76
2023/06/07 05:28:13;;;;;;;3.03;1.85;;;25.60;56.80;;;;;;5093855;28;20035;-77
2023/06/07 05:30:43;;;;;;;3.13;1.65;;;25.70;56.70;;;;;;5094982;28;20028;-78
2023/06/07 05:33:09;;;;;;;2.85;1.88;;;25.80;56.70;;;;;;5094896;28;20035;-77
2023/06/07 05:35:36;;;;;;;2.42;1.75;;;25.90;57.10;;;;;;5095086;28;20085;-76
2023/06/07 05:38:02;;;;;;;2.47;1.60;;;26.00;57.00;;;;;;5095960;28;20039;-79
2023/06/07 05:40:30;;;;;;;5.40;2.10;;;26.00;56.60;;;;;;5079063;28;20024;-79
2023/06/07 05:42:57;;;;;;;2.88;1.75;;;26.10;56.20;;;;;;5095082;28;20352;-79
2023/06/07 05:45:24;;;;;;;5.88;2.10;;;26.10;56.00;;;;;;5094204;28;20495;-76
2023/06/07 05:47:50;;;;;;;2.20;1.70;;;26.20;55.90;;;;;;5075901;28;20043;-78
2023/06/07 05:50:19;;;;;;;2.90;1.80;;;26.30;55.60;;;;;;5083975;28;20035;-79
2023/06/07 05:52:46;;;;;;;4.45;1.90;;;26.40;55.60;;;;;;5097966;28;20059;-77
2023/06/07 05:55:12;;;;;;;4.07;1.92;;;26.40;55.30;;;;;;5094504;28;20059;-77
2023/06/07 05:57:39;;;;;;;2.75;1.65;;;26.50;55.30;;;;;;5095294;28;20040;-77
2023/06/07 06:00:10;;;;;;;1.80;1.52;;;26.60;55.30;;;;;;5094526;28;20032;-78
2023/06/07 06:02:38;;;;;;;3.03;2.00;;;26.60;54.90;;;;;;5095865;28;20066;-77
2023/06/07 06:05:07;;;;;;;3.50;1.73;;;26.60;54.80;;;;;;5094880;28;20598;-76
2023/06/07 06:07:33;;;;;;;2.83;1.50;;;26.70;54.60;;;;;;5090329;28;20040;-78
2023/06/07 06:09:59;;;;;;;3.35;1.67;;;26.80;54.40;;;;;;5094515;28;20573;-77
2023/06/07 06:12:25;;;;;;;5.57;1.90;;;26.80;54.40;;;;;;5093847;28;20047;-77
2023/06/07 06:14:52;;;;;;;3.08;1.75;;;26.90;54.40;;;;;;5094940;28;20044;-76
2023/06/07 06:17:17;;;;;;;2.65;1.67;;;26.90;54.10;;;;;;5092024;28;20154;-77
2023/06/07 06:19:43;;;;;;;5.38;1.75;;;27.00;54.20;;;;;;5093438;28;20040;-78
2023/06/07 06:22:09;;;;;;;3.55;1.80;;;27.00;53.70;;;;;;5093658;28;20066;-78
2023/06/07 06:24:35;;;;;;;4.53;1.77;;;27.10;53.60;;;;;;5094273;28;20063;-79
2023/06/07 06:27:01;;;;;;;4.82;2.15;;;27.10;53.90;;;;;;5094585;28;20058;-77
2023/06/07 06:29:27;;;;;;;4.65;2.22;;;27.10;53.60;;;;;;5091349;28;20039;-76
2023/06/07 06:31:53;;;;;;;4.40;1.90;;;27.20;53.70;;;;;;5096045;28;20019;-75
2023/06/07 06:34:19;;;;;;;8.23;2.13;;;27.30;53.60;;;;;;5095368;28;20487;-76
2023/06/07 06:36:46;;;;;;;4.47;2.13;;;27.30;53.30;;;;;;5095815;28;20240;-76
2023/06/07 06:39:14;;;;;;;7.70;2.17;;;27.30;53.60;;;;;;5093054;28;20063;-74
2023/06/07 06:41:40;;;;;;;5.40;2.22;;;27.40;53.50;;;;;;5087854;28;20065;-73
2023/06/07 06:44:09;;;;;;;4.68;2.10;;;27.40;53.30;;;;;;5092966;28;20031;-75
2023/06/07 06:46:35;;;;;;;6.75;2.38;;;27.50;53.50;;;;;;5093519;28;20075;-75
2023/06/07 06:49:01;;;;;;;6.85;2.10;;;27.50;53.20;;;;;;5093486;28;20082;-74
2023/06/07 06:51:27;;;;;;;5.53;2.13;;;27.60;53.20;;;;;;5090967;28;20072;-74
2023/06/07 06:53:53;;;;;;;4.40;2.10;;;27.60;52.20;;;;;;5094157;28;20107;-75
2023/06/07 06:56:21;;;;;;;4.80;2.20;;;27.60;53.00;;;;;;5092551;28;20476;-75
2023/06/07 06:58:47;;;;;;;3.65;2.10;;;27.60;52.90;;;;;;5094735;28;20833;-77
2023/06/07 07:01:14;;;;;;;5.63;1.95;;;27.60;52.90;;;;;;5097225;28;20119;-77
2023/06/07 07:03:40;;;;;;;4.68;1.90;;;27.60;52.90;;;;;;5086604;28;20127;-76
2023/06/07 07:06:09;;;;;;;7.00;2.17;;;27.60;52.80;;;;;;5095073;28;20536;-76
2023/06/07 07:08:36;;;;;;;5.57;1.90;;;27.60;52.60;;;;;;5092571;28;20044;-77
2023/06/07 07:11:02;;;;;;;6.45;2.08;;;27.60;52.80;;;;;;5094478;28;20048;-76
2023/06/07 07:13:28;;;;;;;8.20;2.10;;;27.50;53.20;;;;;;5093271;28;20057;-75
2023/06/07 07:15:54;;;;;;;8.80;1.70;;;27.50;53.10;;;;;;5093511;28;20124;-76
2023/06/07 07:18:20;;;;;;;4.75;2.03;;;27.50;52.50;;;;;;5091574;28;20640;-76
2023/06/07 07:20:46;;;;;;;6.32;2.10;;;27.50;53.30;;;;;;5090743;28;20111;-76
2023/06/07 07:23:12;;;;;;;3.47;1.63;;;27.50;53.50;;;;;;5093485;28;20667;-78
2023/06/07 07:25:38;;;;;;;4.90;1.77;;;27.50;53.60;;;;;;5095403;28;20027;-82
2023/06/07 07:28:05;;;;;;;3.78;1.70;;;27.50;53.70;;;;;;5091783;28;20040;-82
2023/06/07 07:30:31;;;;;;;6.90;2.00;;;27.50;53.50;;;;;;5092945;28;20055;-85
2023/06/07 07:32:57;;;;;;;7.35;1.98;;;27.50;52.60;;;;;;5093748;28;20518;-86
2023/06/07 07:35:23;;;;;;;2.30;1.80;;;27.50;52.90;;;;;;5092896;28;20032;-87
2023/06/07 07:37:50;;;;;;;6.50;2.15;;;27.60;53.00;;;;;;5093513;28;20043;-91
2023/06/07 07:40:17;;;;;;;4.07;1.45;;;27.60;52.60;;;;;;5093909;28;20096;-84
2023/06/07 07:42:43;;;;;;;4.13;1.58;;;27.50;52.60;;;;;;5092885;28;20424;-80
2023/06/07 07:45:09;;;;;;;3.80;2.00;;;27.50;52.90;;;;;;5087240;28;20032;-81
2023/06/07 07:47:35;;;;;;;6.72;1.80;;;27.50;51.50;;;;;;5087587;28;20043;-80
2023/06/07 07:50:03;;;;;;;5.22;1.70;;;27.50;52.40;;;;;;5090484;28;20024;-83
2023/06/07 07:52:30;;;;;;;3.13;1.63;;;27.50;51.00;;;;;;5070667;28;20062;-81
2023/06/07 07:54:56;;;;;;;3.63;1.45;;;27.50;52.30;;;;;;5089432;28;20405;-79
2023/06/07 07:57:22;;;;;;;3.20;1.70;;;27.50;52.40;;;;;;5093762;28;20031;-81
2023/06/07 07:59:48;;;;;;;3.35;1.83;;;27.40;52.20;;;;;;5088619;28;20036;-82
2023/06/07 08:02:14;;;;;;;5.18;1.35;;;27.40;51.10;;;;;;5090801;28;20031;-81
2023/06/07 08:04:40;;;;;;;2.80;1.85;;;27.30;51.70;;;;;;5095600;28;20434;-80
2023/06/07 08:07:06;;;;;;;2.60;1.35;;;27.30;52.60;;;;;;5094507;28;20035;-79
2023/06/07 08:09:32;;;;;;;3.15;1.52;;;27.20;52.60;;;;;;5092830;28;20227;-81
2023/06/07 08:11:57;;;;;;;8.38;1.77;;;27.20;53.00;;;;;;5094296;28;20047;-84
2023/06/07 08:14:23;;;;;;;6.70;1.83;;;27.20;53.30;;;;;;5094554;28;20578;-84
2023/06/07 08:16:49;;;;;;;7.70;1.83;;;27.20;52.60;;;;;;5094293;28;20031;-76
2023/06/07 08:19:15;;;;;;;10.07;1.67;;;27.10;53.10;;;;;;5088421;28;20702;-78
2023/06/07 08:21:47;;;;;;;4.85;1.60;;;27.00;53.10;;;;;;5093052;28;20086;-79
2023/06/07 08:24:13;;;;;;;3.75;1.63;;;26.90;52.90;;;;;;5092419;28;20043;-75
2023/06/07 08:26:39;;;;;;;16.48;1.88;;;26.90;53.40;;;;;;5093804;28;20028;-76
2023/06/07 08:29:05;;;;;;;10.45;2.08;;;26.80;53.60;;;;;;5095256;28;20032;-77
2023/06/07 08:31:31;;;;;;;6.78;1.85;;;26.70;53.30;;;;;;5093547;28;20043;-78
2023/06/07 08:33:57;;;;;;;4.32;1.63;;;26.70;53.20;;;;;;5094015;28;20032;-74
2023/06/07 08:36:23;;;;;;;12.55;2.10;;;26.70;52.40;;;;;;5093911;28;20038;-73
2023/06/07 08:38:49;;;;;;;6.20;2.17;;;26.70;50.90;;;;;;5092949;28;20131;-73
2023/06/07 08:41:15;;;;;;;7.07;1.88;;;26.70;54.00;;;;;;5092862;28;20107;-76
2023/06/07 08:43:43;;;;;;;10.02;2.10;;;26.70;52.90;;;;;;5093268;28;20015;-75
2023/06/07 08:46:10;;;;;;;11.70;1.95;;;26.70;53.60;;;;;;5093585;28;20676;-86
2023/06/07 08:48:39;;;;;;;8.98;1.70;;;26.70;53.10;;;;;;5091643;28;20039;-78
2023/06/07 08:51:08;;;;;;;6.05;2.50;;;26.60;53.90;;;;;;5092792;28;20042;-78
2023/06/07 08:53:54;;;;;;;7.90;1.88;;;26.60;54.00;;;;;;5091398;28;20118;-83
2023/06/07 08:56:22;;;;;;;7.78;1.85;;;26.60;53.80;;;;;;5075996;28;20082;-80
2023/06/07 08:58:50;;;;;;;8.32;1.88;;;26.50;53.90;;;;;;5093062;28;20042;-81
2023/06/07 09:01:17;;;;;;;6.43;1.80;;;26.50;53.60;;;;;;5093361;28;20391;-78
2023/06/07 09:03:43;;;;;;;12.48;2.05;;;26.50;54.10;;;;;;5092611;28;20388;-88
2023/06/07 09:06:11;;;;;;;6.00;1.83;;;26.40;53.90;;;;;;5093911;28;20077;-86
2023/06/07 09:08:37;;;;;;;3.70;1.70;;;26.50;53.20;;;;;;5092537;28;20124;-85
2023/06/07 09:11:03;;;;;;;8.38;1.95;;;26.50;53.80;;;;;;5093699;28;20526;-86
2023/06/07 09:13:30;;;;;;;5.57;1.67;;;26.40;53.50;;;;;;5092387;28;20024;-84
2023/06/07 09:15:57;;;;;;;7.53;1.98;;;26.40;53.10;;;;;;5093525;28;20069;-76
2023/06/07 09:18:23;;;;;;;4.60;1.63;;;26.40;52.70;;;;;;5093694;28;20036;-85
2023/06/07 09:20:49;;;;;;;5.35;1.70;;;26.40;50.10;;;;;;5093002;28;20438;-85
2023/06/07 09:23:16;;;;;;;4.80;2.13;;;26.40;50.60;;;;;;5093611;28;20016;-85
2023/06/07 09:25:46;;;;;;;3.40;1.92;;;26.40;50.60;;;;;;5095621;28;20069;-80
2023/06/07 09:28:13;;;;;;;6.03;1.70;;;26.40;50.50;;;;;;5091748;28;20034;-73
2023/06/07 09:31:06;;;;;;;5.28;1.95;;;26.40;50.70;;;;;;5098780;28;20419;-78
2023/06/07 09:33:34;;;;;;;8.23;1.77;;;26.40;52.50;;;;;;5088033;28;20036;-76
2023/06/07 09:36:15;;;;;;;4.90;1.90;;;26.40;51.40;;;;;;5092237;28;20039;-79
2023/06/07 09:38:41;;;;;;;3.60;1.67;;;26.40;50.10;;;;;;5091898;28;20039;-79
2023/06/07 09:41:09;;;;;;;2.90;1.58;;;26.30;51.60;;;;;;5089564;28;20035;-79
2023/06/07 09:43:46;;;;;;;3.25;1.75;;;26.40;50.10;;;;;;5091093;28;20411;-84
2023/06/07 09:46:13;;;;;;;3.58;1.95;;;26.30;49.80;;;;;;5091067;28;20335;-74
2023/06/07 09:48:50;;;;;;;8.60;2.05;;;26.30;48.50;;;;;;5089823;28;20081;-75
2023/06/07 09:51:18;;;;;;;4.78;1.83;;;26.30;54.90;;;;;;5089245;28;20039;-75
2023/06/07 09:54:01;;;;;;;5.55;2.05;;;26.30;52.50;;;;;;5085201;28;20035;-80
2023/06/07 09:56:27;;;;;;;3.75;2.20;;;26.20;49.70;;;;;;5091503;28;20469;-81
2023/06/07 09:59:08;;;;;;;6.15;1.95;;;26.20;48.50;;;;;;5093336;28;20043;-81
2023/06/07 10:01:35;;;;;;;5.93;1.52;;;26.20;49.30;;;;;;5092021;28;20039;-74
2023/06/07 10:04:02;;;;;;;3.83;1.80;;;26.20;50.20;;;;;;5092566;28;20481;-86
2023/06/07 10:06:34;;;;;;;2.08;1.73;;;26.20;48.20;;;;;;5094171;28;20040;-85
2023/06/07 10:09:06;;;;;;;3.63;1.63;;;26.20;48.30;;;;;;5093564;28;20032;-81
2023/06/07 10:11:35;;;;;;;5.35;1.70;;;26.20;50.80;;;;;;5090592;28;21242;-79
2023/06/07 10:14:10;;;;;;;2.17;1.60;;;26.20;47.90;;;;;;5092587;28;20054;-79
2023/06/07 10:16:44;;;;;;;6.55;1.85;;;26.20;47.80;;;;;;5089829;28;20047;-77
2023/06/07 10:19:21;;;;;;;3.60;1.88;;;26.10;48.20;;;;;;5090540;28;20035;-78
2023/06/07 10:21:50;;;;;;;4.43;1.80;;;26.10;47.70;;;;;;5089608;28;20071;-79
2023/06/07 10:24:24;;;;;;;2.67;1.77;;;26.10;47.70;;;;;;5075131;28;20297;-77
2023/06/07 10:26:55;;;;;;;3.40;1.95;;;26.10;47.50;;;;;;5092007;28;20047;-79
2023/06/07 10:29:45;;;;;;;4.60;1.98;;;26.10;47.80;;;;;;5091899;28;20043;-79
2023/06/07 10:32:16;;;;;;;4.95;1.75;;;26.10;47.70;;;;;;5090825;28;20440;-79
2023/06/07 10:34:45;;;;;;;3.00;1.73;;;26.10;47.30;;;;;;5089678;28;20453;-80
2023/06/07 10:37:14;;;;;;;3.17;1.73;;;26.10;48.10;;;;;;5090125;28;20035;-80
2023/06/07 10:39:40;;;;;;;3.20;1.95;;;26.10;47.90;;;;;;5089055;28;20455;-76
2023/06/07 10:42:07;;;;;;;5.80;2.10;;;26.10;47.40;;;;;;5091205;28;20031;-77
2023/06/07 10:44:35;;;;;;;2.72;1.85;;;26.10;47.60;;;;;;5089711;28;20048;-76
2023/06/07 10:47:23;;;;;;;4.55;2.10;;;26.10;48.20;;;;;;5091131;28;20024;-76
2023/06/07 10:49:50;;;;;;;3.47;1.77;;;26.10;48.40;;;;;;5089400;28;20048;-76
2023/06/07 10:52:17;;;;;;;2.42;1.75;;;26.10;47.60;;;;;;5090355;28;20051;-76
2023/06/07 10:54:45;;;;;;;3.95;1.70;;;26.10;47.50;;;;;;5090386;28;20553;-76
2023/06/07 10:57:11;;;;;;;5.95;1.90;;;26.10;47.10;;;;;;5090827;28;20036;-79
2023/06/07 10:59:38;;;;;;;8.10;1.92;;;26.00;46.80;;;;;;5087498;28;20052;-77
2023/06/07 11:02:26;;;;;;;5.28;2.13;;;26.00;46.50;;;;;;5090503;28;20035;-78
2023/06/07 11:04:53;;;;;;;10.57;2.00;;;26.00;47.50;;;;;;5097751;28;20041;-77
2023/06/07 11:07:30;;;;;;;4.57;2.05;;;26.00;47.40;;;;;;5090285;28;20082;-77
2023/06/07 11:10:04;;;;;;;5.00;2.38;;;26.00;47.30;;;;;;5089519;28;20126;-76
2023/06/07 11:12:40;;;;;;;6.25;2.10;;;26.00;47.70;;;;;;5090548;28;20055;-77
2023/06/07 11:15:25;;;;;;;3.83;2.10;;;26.00;47.20;;;;;;5089933;28;20463;-76
2023/06/07 11:18:10;;;;;;;6.47;2.17;;;26.00;47.10;;;;;;5089171;28;20411;-77
2023/06/07 11:20:38;;;;;;;8.85;2.13;;;25.90;47.50;;;;;;5067842;28;20457;-81
2023/06/07 11:23:23;;;;;;;6.50;1.95;;;25.80;46.90;;;;;;5091439;28;20041;-78
2023/06/07 11:26:11;;;;;;;3.83;1.85;;;25.80;47.20;;;;;;5089887;28;20046;-74
2023/06/07 11:28:39;;;;;;;4.45;1.83;;;25.80;49.00;;;;;;5088121;28;20040;-79
2023/06/07 11:31:10;;;;;;;3.08;2.03;;;25.90;49.10;;;;;;5090247;28;20417;-77
2023/06/07 11:33:36;;;;;;;4.35;2.05;;;25.80;47.40;;;;;;5092479;28;20036;-76
2023/06/07 11:36:05;;;;;;;6.88;2.20;;;25.80;47.90;;;;;;5091572;28;20502;-75
2023/06/07 11:38:32;;;;;;;5.97;2.50;;;25.80;47.20;;;;;;5093811;28;20085;-81
2023/06/07 11:40:58;;;;;;;6.47;2.60;;;25.80;48.30;;;;;;5093147;28;20024;-78
2023/06/07 11:43:26;;;;;;;5.20;2.20;;;25.80;48.80;;;;;;5093232;28;20092;-77
2023/06/07 11:45:56;;;;;;;8.07;2.50;;;25.80;49.10;;;;;;5096388;28;20142;-77
2023/06/07 11:48:28;;;;;;;7.30;2.28;;;25.80;49.10;;;;;;5100659;28;20089;-78
2023/06/07 11:50:55;;;;;;;5.25;2.33;;;25.80;48.80;;;;;;5095370;28;20035;-85
2023/06/07 11:53:21;;;;;;;9.13;2.28;;;25.80;49.50;;;;;;5068698;28;20047;-80
2023/06/07 11:55:47;;;;;;;5.15;2.25;;;25.80;48.40;;;;;;5097120;28;20120;-76
2023/06/07 11:58:13;;;;;;;6.78;2.35;;;25.80;48.30;;;;;;5095896;28;20035;-76
2023/06/07 12:00:43;;;;;;;4.32;2.25;;;25.80;49.80;;;;;;5100304;28;20106;-78
2023/06/07 12:03:10;;;;;;;9.10;2.35;;;25.80;49.40;;;;;;5097271;28;20043;-76
2023/06/07 12:05:37;;;;;;;6.10;2.20;;;25.80;48.40;;;;;;5097030;28;20024;-78
2023/06/07 12:08:05;;;;;;;5.53;2.35;;;25.80;48.70;;;;;;5097093;28;20059;-79
2023/06/07 12:10:33;;;;;;;6.72;2.35;;;25.80;48.80;;;;;;5097814;28;20092;-77
2023/06/07 12:13:18;;;;;;;6.07;2.50;;;25.80;48.20;;;;;;5083848;28;20577;-77
2023/06/07 12:15:49;;;;;;;8.75;2.88;;;25.80;47.70;;;;;;5097124;28;20036;-77
2023/06/07 12:18:18;;;;;;;6.88;2.30;;;25.80;47.80;;;;;;5094795;28;20043;-77
2023/06/07 12:20:45;;;;;;;8.18;2.15;;;25.80;47.70;;;;;;5096771;28;20543;-76
2023/06/07 12:23:12;;;;;;;7.80;3.03;;;25.70;48.40;;;;;;5096382;28;20390;-77
2023/06/07 12:25:40;;;;;;;9.60;2.63;;;25.80;52.80;;;;;;5077100;28;20047;-77
2023/06/07 12:28:08;;;;;;;14.20;3.35;;;25.70;51.10;;;;;;5097153;28;20352;-79
2023/06/07 12:30:42;;;;;;;5.80;2.03;;;25.60;49.50;;;;;;5095781;28;20035;-79
2023/06/07 12:33:15;;;;;;;5.72;2.38;;;25.60;47.60;;;;;;5096040;28;20036;-78
2023/06/07 12:35:47;;;;;;;5.22;2.47;;;25.60;46.90;;;;;;5097834;28;20403;-78
2023/06/07 12:38:13;;;;;;;8.65;1.90;;;25.60;46.50;;;;;;5095465;28;20070;-78
2023/06/07 12:40:40;;;;;;;5.60;2.10;;;25.50;46.80;;;;;;5097171;28;20016;-78
2023/06/07 12:43:06;;;;;;;7.25;2.63;;;25.60;47.00;;;;;;5096100;28;20526;-78
2023/06/07 12:45:32;;;;;;;6.25;2.28;;;25.60;47.00;;;;;;5096305;28;20031;-78
2023/06/07 12:47:58;;;;;;;3.63;2.15;;;25.50;46.40;;;;;;5094436;28;20139;-78
2023/06/07 12:50:24;;;;;;;5.43;2.90;;;25.60;46.50;;;;;;5097257;28;20114;-78
2023/06/07 12:52:50;;;;;;;4.80;2.17;;;25.50;45.40;;;;;;5097669;28;20112;-78